Dadeville, Missouri
Current Conditions -  °F | °C
As of 11:52 PM on Tuesday 25 Nov 2014 (Local Time) from KSGF Reporting Station
Clear Clear  
Wind Chill: 22°   Ceiling: Unl
Heat Index: 31°   Visibility: 10mi
Dew Point: 21°   Wind: 12mph
Humidity: 67%   Direction: 150°SSE
Pressure: 30.08"   Gusts: NA
Location:  37.48°N, 93.67°W
Report Text: KSGF 260552Z 15010KT 10SM CLR M01/M06 A3008 RMK AO2 SLP194 T10061061 10006 21033 400721044 58015
Loading
Personal Weather Stations






























Interactive Weather Map New forecast layout! Learn more

10-Day Weather Forecast

Advertisements
Track Severe Weather on mobile